Salt Lake City, Utah
Traffic Map
Current Weather Conditions
Salt Lake City, Utah
Few Clouds
Few Clouds
25°
Feels Like: 26°
Wind Chill: 25° Ceiling: Unl
Heat Index: 26° Visibility: 10mi
Dew Point: 12° Wind: 6mph
Humidity: 43% Direction: 320° (NW)
Pressure: 30.05in Gusts: 0mph
Raw Report DataKSLC 191853Z 32005KT 10SM FEW070 FEW120 FEW200 25/12 A3005 RMK AO2 SLP126 CB DSNT E-SE TCU DSNT NE T02500117
Traffic Incident Summary
Active as of:
Severity:
Category:
InformationThere was an issue retrieving the traffic information for this location. Please try a different location or try again shortly.
Advertisements
Track Severe Weather on mobile